Time;durP1;ratioP1;P1;durP2;ratioP2;P2;SDS_P1;SDS_P2;PMS_P1;PMS_P2;Temp;Humidity;BMP_temperature;BMP_pressure;BME280_temperature;BME280_humidity;BME280_pressure;Samples;Min_cycle;Max_cycle;Signal;HPM_P1;HPM_P2
2021/01/08 00:03:45;;;;;;;41.15;17.05;;;;;;;3.23;65.40;98733.84;251824;1132;114933;-71
2021/01/08 00:08:47;;;;;;;41.60;18.23;;;;;;;3.20;66.17;98737.44;251707;1133;114417;-71
2021/01/08 00:13:56;;;;;;;39.18;17.27;;;;;;;3.19;65.66;98729.59;251769;1132;114600;-71
2021/01/08 00:19:06;;;;;;;32.85;16.48;;;;;;;3.20;66.20;98732.17;251932;1134;114627;-72
2021/01/08 00:24:15;;;;;;;35.77;15.97;;;;;;;3.20;65.79;98732.17;251859;1132;114643;-72
2021/01/08 00:29:17;;;;;;;39.53;18.63;;;;;;;3.21;65.31;98728.63;251725;1133;114930;-72
2021/01/08 00:34:22;;;;;;;34.73;17.07;;;;;;;3.22;65.90;98725.06;251911;1132;114676;-72
2021/01/08 00:39:24;;;;;;;;;;;;;;;3.23;66.03;98728.58;251462;1132;114700;-75
2021/01/08 00:44:27;;;;;;;35.38;16.90;;;;;;;3.25;65.47;98739.88;251890;1135;103246;-72
2021/01/08 00:49:29;;;;;;;37.97;18.30;;;;;;;3.23;65.32;98742.58;251740;1134;114671;-72
2021/01/08 00:54:33;;;;;;;37.83;17.70;;;;;;;3.23;65.93;98739.95;247817;1134;115036;-72
2021/01/08 00:59:59;;;;;;;36.30;17.00;;;;;;;3.23;65.72;98739.10;249964;1132;114422;-72
2021/01/08 01:05:03;;;;;;;34.25;17.45;;;;;;;3.21;65.66;98738.28;251906;1134;114810;-72
2021/01/08 01:10:05;;;;;;;38.58;18.20;;;;;;;3.22;65.85;98742.63;251862;1132;115095;-72
2021/01/08 01:15:08;;;;;;;42.23;19.30;;;;;;;3.21;65.23;98744.40;251739;1136;114798;-72
2021/01/08 01:20:12;;;;;;;44.63;19.23;;;;;;;3.25;65.29;98745.14;251758;1132;114633;-72
2021/01/08 01:25:14;;;;;;;35.13;17.20;;;;;;;3.34;66.09;98746.58;251697;1134;114769;-72
2021/01/08 01:30:17;;;;;;;35.10;17.50;;;;;;;3.38;65.80;98749.03;251896;1132;115976;-72
2021/01/08 01:35:20;;;;;;;34.73;17.50;;;;;;;3.41;65.64;98745.44;251765;1132;114837;-72
2021/01/08 01:40:23;;;;;;;39.57;17.33;;;;;;;3.39;65.52;98736.73;251586;1134;114602;-72
2021/01/08 01:45:25;;;;;;;36.17;17.13;;;;;;;3.34;65.11;98731.66;251789;1135;115747;-72
2021/01/08 01:50:35;;;;;;;34.00;16.03;;;;;;;3.30;65.61;98738.80;251619;1132;115225;-72
2021/01/08 01:55:39;;;;;;;36.47;16.53;;;;;;;3.28;65.75;98731.88;250115;1134;117015;-72
2021/01/08 02:00:42;;;;;;;34.48;17.20;;;;;;;3.28;65.35;98729.25;251693;1133;115466;-73
2021/01/08 02:05:49;;;;;;;33.93;16.07;;;;;;;3.24;65.25;98728.51;250729;1134;114858;-74
2021/01/08 02:11:01;;;;;;;31.93;16.57;;;;;;;3.24;65.43;98727.66;251666;1134;115216;-73
2021/01/08 02:16:06;;;;;;;34.77;18.17;;;;;;;3.24;65.46;98714.52;251874;1132;115184;-74
2021/01/08 02:21:15;;;;;;;33.43;16.30;;;;;;;3.23;65.85;98710.17;251582;1132;115845;-74
2021/01/08 02:26:19;;;;;;;32.42;17.70;;;;;;;3.23;65.85;98707.55;251404;1133;114640;-73
2021/01/08 02:31:22;;;;;;;33.65;17.65;;;;;;;3.25;65.78;98710.95;251710;1135;114677;-73
2021/01/08 02:36:26;;;;;;;31.23;16.85;;;;;;;3.20;65.35;98713.77;251429;1132;114712;-73
2021/01/08 02:41:30;;;;;;;33.73;18.02;;;;;;;3.19;65.16;98711.18;251486;1135;115033;-73
2021/01/08 02:46:33;;;;;;;37.35;18.98;;;;;;;3.20;65.55;98708.52;251779;1134;114981;-73
2021/01/08 02:51:36;;;;;;;37.13;19.30;;;;;;;3.23;65.36;98707.55;251678;1134;115297;-72
2021/01/08 02:56:53;;;;;;;36.63;19.60;;;;;;;3.27;65.94;98709.14;249181;1134;115731;-72
2021/01/08 03:01:57;;;;;;;36.38;18.52;;;;;;;3.26;65.40;98702.14;251787;1131;114605;-73
2021/01/08 03:07:00;;;;;;;38.43;19.03;;;;;;;3.24;65.17;98701.36;251538;1134;115107;-73
2021/01/08 03:12:03;;;;;;;39.95;19.42;;;;;;;3.23;66.23;98702.29;251668;1135;114692;-73
2021/01/08 03:17:05;;;;;;;36.45;18.67;;;;;;;3.22;65.89;98703.18;251847;1133;114682;-73
2021/01/08 03:22:08;;;;;;;35.17;19.03;;;;;;;3.19;65.20;98703.30;251883;1132;114813;-74
2021/01/08 03:27:11;;;;;;;38.38;19.85;;;;;;;3.19;65.47;98711.18;251548;1134;114922;-73
2021/01/08 03:32:13;;;;;;;36.47;18.20;;;;;;;3.21;65.83;98707.59;251819;1132;114872;-74
2021/01/08 03:37:16;;;;;;;34.10;18.53;;;;;;;3.19;65.76;98711.18;252091;1132;115129;-73
2021/01/08 03:42:18;;;;;;;37.53;20.08;;;;;;;3.18;65.78;98715.59;251602;1132;114802;-73
2021/01/08 03:47:20;;;;;;;31.40;18.13;;;;;;;3.19;65.52;98711.18;251831;1134;114687;-74
2021/01/08 03:52:23;;;;;;;33.80;18.87;;;;;;;3.19;65.32;98704.14;251862;1133;114729;-74
2021/01/08 03:57:25;;;;;;;37.77;18.33;;;;;;;3.20;65.46;98705.03;251169;1132;114619;-73
2021/01/08 04:02:28;;;;;;;33.53;18.87;;;;;;;3.22;65.47;98711.07;251678;1134;114663;-74
2021/01/08 04:07:31;;;;;;;35.97;18.63;;;;;;;3.20;66.15;98710.28;251860;1134;114668;-74
2021/01/08 04:12:33;;;;;;;39.30;19.20;;;;;;;3.23;65.62;98711.03;251642;1135;114746;-73
2021/01/08 04:17:36;;;;;;;37.83;18.80;;;;;;;3.24;65.20;98717.14;251648;1134;115025;-73
2021/01/08 04:22:39;;;;;;;32.33;17.17;;;;;;;3.26;65.65;98716.17;252042;1132;114829;-73
2021/01/08 04:27:44;;;;;;;;;;;;;;;3.25;65.49;98711.81;250201;1132;115181;-72
2021/01/08 04:32:47;;;;;;;35.57;17.47;;;;;;;3.23;65.81;98710.17;251005;1134;104334;-73
2021/01/08 04:37:49;;;;;;;31.87;16.60;;;;;;;3.23;65.83;98710.17;251649;1132;114774;-72
2021/01/08 04:42:52;;;;;;;34.90;16.83;;;;;;;3.24;65.14;98709.25;251765;1135;114815;-72
2021/01/08 04:47:58;;;;;;;30.77;16.57;;;;;;;3.24;64.95;98706.63;251854;1133;115054;-72
2021/01/08 04:53:01;;;;;;;32.57;16.63;;;;;;;3.23;65.36;98704.92;251743;1132;114658;-73
2021/01/08 04:58:07;;;;;;;28.12;14.60;;;;;;;3.21;65.17;98697.06;250696;1134;114825;-74
2021/01/08 05:03:09;;;;;;;26.13;14.50;;;;;;;3.22;65.67;98703.18;251911;1132;115634;-73
2021/01/08 05:08:12;;;;;;;31.65;15.98;;;;;;;3.26;65.02;98707.40;251736;1133;114609;-74
2021/01/08 05:13:16;;;;;;;24.97;13.60;;;;;;;3.27;65.05;98706.51;252013;1134;115715;-73
2021/01/08 05:18:21;;;;;;;;;;;;;;;3.26;65.46;98708.28;251852;1132;115134;-73
2021/01/08 05:23:27;;;;;;;27.77;14.43;;;;;;;3.26;65.48;98710.03;251805;1135;102127;-74
2021/01/08 05:28:29;;;;;;;27.17;14.67;;;;;;;3.29;65.61;98710.80;251711;1133;114934;-75
2021/01/08 05:33:33;;;;;;;26.77;15.03;;;;;;;3.29;65.67;98709.92;252161;1133;115129;-75
2021/01/08 05:38:39;;;;;;;38.47;20.17;;;;;;;3.28;66.05;98713.47;251766;1133;115990;-75
2021/01/08 05:43:43;;;;;;;44.40;22.30;;;;;;;3.29;65.57;98716.06;251821;1135;114965;-71
2021/01/08 05:48:51;;;;;;;43.83;24.02;;;;;;;3.28;65.99;98718.73;251718;1133;114909;-72
2021/01/08 05:53:59;;;;;;;44.30;23.77;;;;;;;3.27;65.95;98717.88;252128;1134;114513;-74
2021/01/08 05:59:04;;;;;;;50.63;23.93;;;;;;;3.33;65.72;98716.80;251500;1133;114990;-74
2021/01/08 06:04:07;;;;;;;;;;;;;;;3.37;66.24;98722.80;251891;1132;115197;-73
2021/01/08 06:09:14;;;;;;;43.10;23.93;;;;;;;3.35;66.11;98716.73;251946;1134;102602;-73
2021/01/08 06:14:17;;;;;;;42.08;21.85;;;;;;;3.36;65.86;98723.70;251386;1132;114891;-72
2021/01/08 06:19:21;;;;;;;42.10;22.17;;;;;;;3.34;65.92;98715.02;252002;1132;115993;-74
2021/01/08 06:24:26;;;;;;;39.60;21.83;;;;;;;3.32;66.69;98720.33;251991;1134;115298;-72
2021/01/08 06:29:33;;;;;;;40.12;21.57;;;;;;;3.29;66.02;98720.44;251948;1134;114743;-71
2021/01/08 06:34:46;;;;;;;47.87;23.57;;;;;;;3.27;66.35;98714.40;251938;1132;115181;-71
2021/01/08 06:39:55;;;;;;;46.70;24.00;;;;;;;3.32;66.63;98717.70;251741;1134;115143;-73
2021/01/08 06:44:59;;;;;;;44.63;22.80;;;;;;;3.33;66.56;98716.80;251937;1134;114724;-73
2021/01/08 06:50:02;;;;;;;44.37;22.67;;;;;;;3.30;66.76;98720.40;251683;1134;115116;-73
2021/01/08 06:55:08;;;;;;;43.93;24.67;;;;;;;3.28;66.53;98716.11;252018;1133;114812;-72
2021/01/08 07:00:15;;;;;;;47.13;23.60;;;;;;;3.27;66.19;98719.66;251615;1133;114903;-72
2021/01/08 07:05:18;;;;;;;38.15;22.17;;;;;;;3.26;66.61;98725.81;251838;1133;115058;-74
2021/01/08 07:10:21;;;;;;;38.97;20.07;;;;;;;3.22;66.73;98725.06;251915;1133;116559;-75
2021/01/08 07:15:25;;;;;;;43.53;22.83;;;;;;;3.26;66.47;98733.70;250913;1132;116769;-74
2021/01/08 07:20:27;;;;;;;45.75;22.52;;;;;;;3.33;66.58;98732.58;252024;1133;114947;-74
2021/01/08 07:25:53;;;;;;;46.60;22.27;;;;;;;3.44;66.69;98737.43;251700;1132;115234;-74
2021/01/08 07:31:09;;;;;;;43.20;21.70;;;;;;;3.47;66.33;98738.17;251843;1134;114768;-74
2021/01/08 07:36:20;;;;;;;41.85;21.27;;;;;;;3.52;66.30;98738.84;251800;1133;114801;-74
2021/01/08 07:41:33;;;;;;;36.80;19.60;;;;;;;3.52;66.52;98744.09;251792;1134;115060;-74
2021/01/08 07:46:35;;;;;;;36.00;18.93;;;;;;;3.53;66.37;98753.73;251842;1134;115238;-74
2021/01/08 07:51:47;;;;;;;36.07;19.67;;;;;;;3.53;66.64;98755.47;251958;1134;114940;-73
2021/01/08 07:57:18;;;;;;;38.38;19.73;;;;;;;3.54;66.53;98768.59;251824;1132;115095;-75
2021/01/08 08:02:21;;;;;;;33.53;18.13;;;;;;;3.55;67.35;98769.44;251651;1133;114453;-74
2021/01/08 08:07:24;;;;;;;34.90;18.23;;;;;;;3.59;66.51;98764.91;252092;1132;114730;-72
2021/01/08 08:12:26;;;;;;;29.30;15.90;;;;;;;3.61;66.54;98763.95;251587;1133;114953;-75
2021/01/08 08:17:29;;;;;;;33.47;17.60;;;;;;;3.63;66.47;98769.14;251606;1135;115390;-75
2021/01/08 08:22:35;;;;;;;32.00;16.48;;;;;;;3.64;66.27;98771.73;251718;1132;114967;-75
2021/01/08 08:27:38;;;;;;;33.73;17.60;;;;;;;3.67;66.87;98779.51;251798;1133;115030;-75
2021/01/08 08:32:41;;;;;;;38.07;18.10;;;;;;;3.71;66.72;98781.09;251770;1134;114879;-75
2021/01/08 08:37:51;;;;;;;31.47;15.73;;;;;;;3.73;67.07;98779.25;251809;1134;114728;-75
2021/01/08 08:42:54;;;;;;;28.33;16.07;;;;;;;3.76;66.48;98779.13;251776;1132;115134;-76
2021/01/08 08:48:05;;;;;;;32.20;16.10;;;;;;;3.82;66.18;98778.05;251775;1134;115284;-75
2021/01/08 08:53:14;;;;;;;28.77;15.30;;;;;;;3.82;66.63;98775.42;251606;1134;115254;-76
2021/01/08 08:58:18;;;;;;;25.70;15.13;;;;;;;3.86;66.63;98777.00;249011;1132;115077;-74
2021/01/08 09:03:23;;;;;;;31.63;15.17;;;;;;;3.91;66.10;98769.80;251685;1133;115101;-75
2021/01/08 09:08:30;;;;;;;25.40;14.60;;;;;;;3.96;66.69;98775.73;251775;1133;114773;-76
2021/01/08 09:13:45;;;;;;;24.35;14.40;;;;;;;4.05;66.49;98768.41;251722;1132;114992;-76
2021/01/08 09:18:55;;;;;;;25.30;14.47;;;;;;;4.08;66.41;98769.13;251857;1134;114994;-76
2021/01/08 09:24:03;;;;;;;25.17;14.27;;;;;;;4.10;66.20;98761.16;251874;1134;115151;-76
2021/01/08 09:29:05;;;;;;;28.67;16.33;;;;;;;4.14;66.60;98757.48;251629;1133;114830;-83
2021/01/08 09:34:08;;;;;;;28.20;15.53;;;;;;;4.22;66.74;98761.52;251646;1133;115137;-75
2021/01/08 09:39:11;;;;;;;32.05;18.35;;;;;;;4.30;66.34;98766.47;251706;1134;115965;-74
2021/01/08 09:44:15;;;;;;;36.90;18.60;;;;;;;4.40;66.77;98759.91;251603;1133;115197;-74
2021/01/08 09:49:17;;;;;;;31.10;18.40;;;;;;;4.44;65.64;98758.84;251775;1132;115229;-73
2021/01/08 09:54:19;;;;;;;32.73;16.67;;;;;;;4.49;65.71;98762.16;251903;1133;114631;-73
2021/01/08 09:59:22;;;;;;;25.73;14.83;;;;;;;4.50;65.00;98755.97;249276;1133;115201;-73
2021/01/08 10:04:29;;;;;;;21.33;13.32;;;;;;;4.51;65.12;98752.40;251664;1132;114946;-73
2021/01/08 10:09:45;;;;;;;24.43;13.77;;;;;;;4.55;65.71;98749.64;251833;1134;114791;-74
2021/01/08 10:14:48;;;;;;;19.07;11.57;;;;;;;4.51;64.25;98752.40;250293;1132;115134;-73
2021/01/08 10:19:55;;;;;;;17.83;10.63;;;;;;;4.53;64.59;98751.50;251807;1132;115261;-71
2021/01/08 10:25:21;;;;;;;18.93;11.10;;;;;;;4.53;63.87;98740.96;251841;1134;115014;-73
2021/01/08 10:30:42;;;;;;;20.30;11.20;;;;;;;4.49;63.67;98742.87;251979;1133;114944;-74
2021/01/08 10:35:47;;;;;;;20.47;10.50;;;;;;;4.50;63.87;98734.88;251704;1134;115137;-73
2021/01/08 10:40:50;;;;;;;14.90;9.03;;;;;;;4.56;63.48;98728.51;251930;1135;115364;-72
2021/01/08 10:45:53;;;;;;;19.57;9.20;;;;;;;4.60;63.11;98722.18;252048;1134;114956;-73
2021/01/08 10:50:58;;;;;;;16.60;8.70;;;;;;;4.63;61.96;98716.78;251822;1132;114689;-73
2021/01/08 10:56:00;;;;;;;15.68;7.50;;;;;;;4.72;62.55;98726.94;251842;1132;114879;-74
2021/01/08 11:01:02;;;;;;;18.97;9.57;;;;;;;4.81;62.51;98711.63;251859;1132;114599;-74
2021/01/08 11:06:06;;;;;;;18.00;9.83;;;;;;;4.90;61.86;98716.50;251885;1132;114693;-73
2021/01/08 11:11:09;;;;;;;17.53;8.33;;;;;;;4.92;61.11;98715.48;251830;1133;114845;-74
2021/01/08 11:16:11;;;;;;;16.07;8.10;;;;;;;4.92;61.11;98712.00;251925;1134;114748;-74
2021/01/08 11:21:18;;;;;;;11.15;6.35;;;;;;;4.95;61.67;98711.87;251806;1133;114934;-73
2021/01/08 11:26:28;;;;;;;12.83;7.00;;;;;;;4.92;61.38;98702.30;251969;1142;114858;-74
2021/01/08 11:31:35;;;;;;;14.83;7.27;;;;;;;4.98;61.16;98709.95;251721;1135;114920;-74
2021/01/08 11:36:39;;;;;;;12.50;7.63;;;;;;;4.99;61.13;98708.16;251820;1130;114587;-74
2021/01/08 11:41:41;;;;;;;21.70;5.90;;;;;;;4.95;59.73;98699.53;251761;1134;115085;-74
2021/01/08 11:46:43;;;;;;;16.77;7.70;;;;;;;4.84;60.30;98700.95;252102;1132;114741;-74
2021/01/08 11:51:46;;;;;;;12.03;6.30;;;;;;;4.85;60.02;98703.50;252056;1132;114609;-74
2021/01/08 11:56:49;;;;;;;14.60;6.93;;;;;;;4.82;58.97;98698.36;251380;1133;115209;-74
2021/01/08 12:01:51;;;;;;;14.17;7.90;;;;;;;4.85;59.49;98697.38;251829;1132;114947;-74
2021/01/08 12:06:57;;;;;;;16.57;8.57;;;;;;;4.87;58.80;98693.77;251875;1132;115052;-74
2021/01/08 12:12:01;;;;;;;15.32;6.97;;;;;;;4.93;59.20;98701.41;251989;1134;114649;-75
2021/01/08 12:17:07;;;;;;;12.73;7.10;;;;;;;4.95;59.17;98699.53;251722;1135;114785;-73
2021/01/08 12:22:11;;;;;;;13.97;7.93;;;;;;;4.96;58.34;98698.63;251759;1132;114645;-72
2021/01/08 12:27:16;;;;;;;11.77;7.10;;;;;;;5.00;58.39;98696.71;251984;1134;114925;-73
2021/01/08 12:32:18;;;;;;;11.55;5.08;;;;;;;4.96;57.71;98703.91;251694;1133;114727;-73
2021/01/08 12:37:20;;;;;;;10.78;5.28;;;;;;;4.89;58.34;98704.22;251770;1133;114778;-73
2021/01/08 12:42:24;;;;;;;11.40;5.07;;;;;;;4.88;57.28;98699.89;251557;1132;114584;-72
2021/01/08 12:47:26;;;;;;;8.97;5.13;;;;;;;4.88;56.80;98692.83;251712;1133;114697;-72
2021/01/08 12:52:28;;;;;;;12.13;5.70;;;;;;;4.87;56.72;98687.64;251811;1132;114594;-72
2021/01/08 12:57:31;;;;;;;15.50;5.37;;;;;;;4.83;57.65;98693.98;251572;1133;114746;-73
2021/01/08 13:02:34;;;;;;;10.95;5.05;;;;;;;4.83;56.54;98689.55;251635;1134;114364;-73
2021/01/08 13:07:36;;;;;;;11.07;6.23;;;;;;;4.76;56.69;98693.39;251931;1132;114869;-73
2021/01/08 13:12:39;;;;;;;16.50;6.30;;;;;;;4.81;57.84;98690.53;251555;1132;114549;-73
2021/01/08 13:17:42;;;;;;;16.33;6.23;;;;;;;4.88;57.03;98690.19;251981;1132;114493;-73
2021/01/08 13:22:44;;;;;;;15.00;7.73;;;;;;;4.93;56.86;98688.22;251564;1133;114863;-73
2021/01/08 13:27:47;;;;;;;15.53;7.70;;;;;;;4.98;57.95;98693.27;248730;1132;114955;-75
2021/01/08 13:32:57;;;;;;;12.73;6.70;;;;;;;5.01;57.64;98694.92;251566;1132;114850;-73
2021/01/08 13:37:59;;;;;;;10.20;5.67;;;;;;;5.06;56.22;98700.83;251571;1133;114872;-72
2021/01/08 13:43:02;;;;;;;8.28;4.72;;;;;;;5.18;56.28;98701.14;251759;1134;115024;-72
2021/01/08 13:48:08;;;;;;;14.73;5.00;;;;;;;5.19;56.01;98702.84;252024;1134;114444;-73
2021/01/08 13:53:10;;;;;;;12.82;5.10;;;;;;;5.21;56.17;98710.70;251826;1132;114874;-73
2021/01/08 13:58:13;;;;;;;20.17;5.97;;;;;;;5.17;55.55;98711.78;251588;1134;114730;-73
2021/01/08 14:03:16;;;;;;;10.03;5.53;;;;;;;5.19;56.21;98716.03;251750;1134;114909;-73
2021/01/08 14:08:18;;;;;;;10.13;5.37;;;;;;;5.16;55.74;98717.95;252021;1132;114679;-73
2021/01/08 14:13:20;;;;;;;14.80;7.93;;;;;;;5.08;55.57;98720.09;252124;1132;114739;-73
2021/01/08 14:18:23;;;;;;;10.32;5.58;;;;;;;4.96;54.87;98718.88;251624;1132;114560;-73
2021/01/08 14:23:25;;;;;;;9.00;4.97;;;;;;;4.87;55.61;98714.85;251956;1135;114840;-73
2021/01/08 14:28:27;;;;;;;11.15;4.70;;;;;;;4.78;55.34;98722.30;251940;1133;114526;-73
2021/01/08 14:33:30;;;;;;;10.17;5.17;;;;;;;4.71;54.84;98733.11;251754;1132;114814;-74
2021/01/08 14:38:33;;;;;;;12.40;6.00;;;;;;;4.69;55.93;98731.48;252004;1136;114854;-74
2021/01/08 14:43:35;;;;;;;15.97;6.13;;;;;;;4.65;55.79;98722.85;248830;1134;116667;-74
2021/01/08 14:48:39;;;;;;;11.13;6.03;;;;;;;4.59;54.67;98727.53;251164;1133;115063;-73
2021/01/08 14:53:42;;;;;;;12.53;6.58;;;;;;;4.54;55.35;98729.48;251717;1134;114564;-73
2021/01/08 14:58:44;;;;;;;15.93;6.70;;;;;;;4.49;55.57;98725.28;251400;1135;114913;-73
2021/01/08 15:03:47;;;;;;;15.97;6.80;;;;;;;4.46;55.23;98728.04;251771;1132;114832;-73
2021/01/08 15:08:49;;;;;;;14.50;6.60;;;;;;;4.41;55.64;98724.72;252009;1133;114635;-73
2021/01/08 15:13:51;;;;;;;16.07;6.60;;;;;;;4.34;55.15;98728.55;251998;1134;114817;-72
2021/01/08 15:18:53;;;;;;;13.70;7.40;;;;;;;4.26;55.60;98722.75;251865;1133;114966;-71
2021/01/08 15:23:56;;;;;;;17.13;7.73;;;;;;;4.15;55.21;98727.61;251632;1132;114584;-72
2021/01/08 15:28:58;;;;;;;26.13;8.27;;;;;;;4.00;55.45;98729.07;251943;1132;114725;-71
2021/01/08 15:34:01;;;;;;;25.62;8.28;;;;;;;3.89;56.50;98733.92;251750;1133;114463;-72
2021/01/08 15:39:03;;;;;;;16.67;8.80;;;;;;;3.78;55.73;98736.98;251875;1133;114712;-72
2021/01/08 15:44:06;;;;;;;30.93;9.17;;;;;;;3.68;55.73;98740.89;251729;1133;114745;-72
2021/01/08 15:49:08;;;;;;;22.97;8.90;;;;;;;3.58;56.96;98742.16;251868;1133;114831;-72
2021/01/08 15:54:10;;;;;;;25.17;9.73;;;;;;;3.49;56.84;98748.62;251565;1134;114863;-72
2021/01/08 15:59:12;;;;;;;20.52;8.73;;;;;;;3.41;56.44;98745.44;251882;1133;114556;-73
2021/01/08 16:04:15;;;;;;;30.30;9.60;;;;;;;3.33;56.95;98743.10;251654;1132;114701;-73
2021/01/08 16:09:17;;;;;;;24.73;8.63;;;;;;;3.24;56.77;98744.29;251803;1132;114554;-73
2021/01/08 16:14:19;;;;;;;26.30;9.30;;;;;;;3.19;56.84;98753.25;251954;1133;114546;-73
2021/01/08 16:19:22;;;;;;;24.27;8.40;;;;;;;3.11;57.39;98764.05;251812;1132;114666;-72
2021/01/08 16:24:24;;;;;;;18.10;8.73;;;;;;;3.03;57.27;98756.45;251702;1134;115033;-73
2021/01/08 16:29:27;;;;;;;22.93;8.83;;;;;;;2.97;57.79;98761.92;251844;1133;114670;-73
2021/01/08 16:34:32;;;;;;;23.30;8.83;;;;;;;2.87;57.77;98760.53;251655;1132;114739;-73
2021/01/08 16:39:34;;;;;;;20.63;9.40;;;;;;;2.82;57.83;98773.84;251886;1134;115002;-73
2021/01/08 16:45:10;;;;;;;25.43;9.80;;;;;;;2.76;58.26;98773.20;258334;1101;104711;-72
2021/01/08 16:50:13;;;;;;;29.40;9.40;;;;;;;2.69;58.19;98779.58;260381;1104;114743;-72
2021/01/08 16:55:15;;;;;;;25.03;9.23;;;;;;;2.65;58.51;98776.20;260874;1104;114239;-72
2021/01/08 17:00:19;;;;;;;24.53;9.87;;;;;;;2.59;58.30;98781.66;260860;1104;213194;-72
2021/01/08 17:05:21;;;;;;;28.93;11.33;;;;;;;2.51;58.55;98778.41;260731;1104;114508;-72
2021/01/08 17:10:24;;;;;;;29.23;10.80;;;;;;;2.48;58.86;98775.88;260677;1103;114537;-72
2021/01/08 17:15:26;;;;;;;27.67;12.83;;;;;;;2.48;58.90;98783.77;260641;1104;114299;-72
2021/01/08 17:20:28;;;;;;;25.77;11.60;;;;;;;2.46;59.26;98796.96;260816;1104;114403;-73
2021/01/08 17:25:31;;;;;;;20.30;10.20;;;;;;;2.45;58.75;98789.15;260916;1104;114645;-73
2021/01/08 17:30:34;;;;;;;23.77;11.20;;;;;;;2.39;58.96;98797.22;260976;1103;114437;-73
2021/01/08 17:35:37;;;;;;;27.90;11.43;;;;;;;2.30;59.44;98801.84;260788;1103;114479;-72
2021/01/08 17:40:40;;;;;;;27.53;11.60;;;;;;;2.27;59.30;98798.46;260807;1104;114585;-74
2021/01/08 17:45:45;;;;;;;26.67;13.37;;;;;;;2.23;59.67;98805.58;260956;1104;115105;-75
2021/01/08 17:50:50;;;;;;;34.53;13.57;;;;;;;2.15;59.72;98810.23;260865;1103;114615;-74
2021/01/08 17:55:57;;;;;;;32.07;14.97;;;;;;;2.12;59.70;98816.42;260870;1104;114275;-73
2021/01/08 18:01:00;;;;;;;39.70;15.47;;;;;;;2.13;60.13;98817.28;260707;1104;114500;-72
2021/01/08 18:06:02;;;;;;;31.17;15.23;;;;;;;2.11;60.16;98817.34;260859;1103;114546;-74
2021/01/08 18:11:06;;;;;;;36.93;14.20;;;;;;;2.09;60.36;98813.89;260879;1104;114463;-75
2021/01/08 18:16:13;;;;;;;35.28;16.87;;;;;;;2.06;60.38;98810.51;260829;1104;114734;-74
2021/01/08 18:21:24;;;;;;;42.70;19.93;;;;;;;2.05;60.74;98817.53;261002;1103;114920;-74
2021/01/08 18:26:31;;;;;;;45.43;19.27;;;;;;;2.06;60.77;98815.76;260888;1104;114742;-72
2021/01/08 18:31:37;;;;;;;55.63;26.27;;;;;;;2.01;60.78;98825.56;261051;1102;114708;-72
2021/01/08 18:36:40;;;;;;;49.23;25.87;;;;;;;2.04;61.08;98838.59;260905;1102;114707;-74
2021/01/08 18:41:42;;;;;;;56.53;27.83;;;;;;;2.05;61.02;98841.15;260942;1102;114795;-74
2021/01/08 18:46:45;;;;;;;51.77;26.93;;;;;;;2.08;61.18;98833.19;260959;1104;114636;-74
2021/01/08 18:51:47;;;;;;;48.83;24.77;;;;;;;2.15;61.29;98833.00;260888;1103;114722;-74
2021/01/08 18:56:49;;;;;;;50.90;25.00;;;;;;;2.27;61.27;98828.20;260970;1102;114840;-74
2021/01/08 19:01:52;;;;;;;58.30;30.40;;;;;;;2.43;61.08;98844.33;261053;1103;114832;-74
2021/01/08 19:06:54;;;;;;;65.60;32.70;;;;;;;2.57;61.06;98836.00;260968;1101;114765;-74
2021/01/08 19:11:57;;;;;;;69.73;34.13;;;;;;;2.68;60.94;98833.02;260953;1102;114564;-75
2021/01/08 19:16:59;;;;;;;66.67;34.27;;;;;;;2.78;60.58;98843.16;260881;1103;114585;-75
2021/01/08 19:22:02;;;;;;;63.07;32.33;;;;;;;2.88;60.28;98840.23;260923;1104;114679;-74
2021/01/08 19:27:24;;;;;;;69.10;34.53;;;;;;;2.95;60.44;98842.58;260892;1103;114530;-72
2021/01/08 19:32:26;;;;;;;63.27;33.03;;;;;;;3.02;60.37;98849.38;260936;1103;114484;-72
2021/01/08 19:37:29;;;;;;;68.07;34.40;;;;;;;3.05;60.50;98853.64;260775;1103;115123;-72
2021/01/08 19:42:36;;;;;;;68.87;32.10;;;;;;;3.09;60.22;98863.14;260964;1104;114571;-72
2021/01/08 19:47:41;;;;;;;68.70;32.20;;;;;;;3.05;59.76;98859.75;260779;1104;114626;-72
2021/01/08 19:52:43;;;;;;;72.80;32.97;;;;;;;3.06;60.21;98865.90;260797;1104;114394;-72
2021/01/08 19:57:46;;;;;;;80.13;38.50;;;;;;;3.07;60.14;98868.46;260802;1103;114613;-72
2021/01/08 20:02:49;;;;;;;74.53;36.20;;;;;;;3.07;60.67;98873.72;260799;1104;114619;-72
2021/01/08 20:07:51;;;;;;;69.10;35.57;;;;;;;3.06;60.30;98871.16;260920;1104;114608;-74
2021/01/08 20:12:54;;;;;;;76.30;37.23;;;;;;;3.00;60.29;98869.59;260844;1104;116060;-71
2021/01/08 20:17:57;;;;;;;83.13;38.87;;;;;;;2.97;60.21;98869.69;260942;1103;114528;-73
2021/01/08 20:22:59;;;;;;;73.13;37.03;;;;;;;2.97;60.40;98871.46;260863;1104;114340;-73
2021/01/08 20:28:02;;;;;;;82.67;40.80;;;;;;;2.99;60.44;98872.25;260881;1104;114960;-72
2021/01/08 20:33:04;;;;;;;79.30;39.67;;;;;;;2.99;60.37;98872.25;260821;1103;114519;-73
2021/01/08 20:38:12;;;;;;;84.57;40.67;;;;;;;3.00;60.26;98872.22;260790;1104;114770;-76
2021/01/08 20:43:14;;;;;;;90.43;42.50;;;;;;;3.02;60.10;98883.55;259856;1103;114705;-74
2021/01/08 20:48:18;;;;;;;87.53;41.75;;;;;;;3.01;60.33;98888.84;260236;1104;114366;-74
2021/01/08 20:53:20;;;;;;;82.33;41.50;;;;;;;3.02;60.38;98896.69;260690;1104;115170;-74
2021/01/08 20:58:23;;;;;;;82.47;40.37;;;;;;;3.03;60.34;98902.80;260728;1103;114544;-75
2021/01/08 21:03:25;;;;;;;80.20;40.27;;;;;;;3.03;60.41;98897.55;260967;1101;114717;-75
2021/01/08 21:08:28;;;;;;;92.57;42.07;;;;;;;3.03;60.43;98901.03;260757;1103;114597;-75
2021/01/08 21:13:30;;;;;;;83.03;40.70;;;;;;;3.03;60.56;98901.03;261031;1101;114499;-74
2021/01/08 21:18:33;;;;;;;94.07;42.60;;;;;;;3.04;60.38;98905.37;261016;1103;114381;-75
2021/01/08 21:23:36;;;;;;;89.07;41.80;;;;;;;3.06;60.90;98908.81;260847;1104;114531;-73
2021/01/08 21:28:39;;;;;;;84.83;41.27;;;;;;;3.10;60.68;98919.23;260932;1104;114730;-74
2021/01/08 21:33:41;;;;;;;92.13;42.37;;;;;;;3.12;60.61;98920.02;260898;1103;114531;-74
2021/01/08 21:38:44;;;;;;;91.10;42.33;;;;;;;3.13;61.08;98927.88;260852;1102;114542;-74
2021/01/08 21:43:46;;;;;;;91.67;45.00;;;;;;;3.16;61.05;98919.00;260947;1104;114531;-72
2021/01/08 21:48:49;;;;;;;84.03;41.93;;;;;;;3.14;60.92;98928.73;260835;1104;114529;-74
2021/01/08 21:53:51;;;;;;;97.03;46.53;;;;;;;3.17;61.01;98936.52;260896;1101;114511;-74
2021/01/08 21:58:54;;;;;;;88.73;42.50;;;;;;;3.11;61.13;98932.31;260869;1103;114679;-74
2021/01/08 22:03:56;;;;;;;87.07;41.60;;;;;;;3.14;61.21;98931.36;260957;1102;115490;-74
2021/01/08 22:08:59;;;;;;;79.80;37.83;;;;;;;3.12;61.43;98926.13;261022;1102;114801;-74
2021/01/08 22:14:02;;;;;;;83.90;40.97;;;;;;;3.12;60.96;98936.65;260741;1104;114978;-74
2021/01/08 22:19:05;;;;;;;81.80;40.23;;;;;;;3.12;60.89;98947.16;260929;1104;114469;-75
2021/01/08 22:24:08;;;;;;;84.93;43.03;;;;;;;3.12;61.26;98947.16;260789;1104;114441;-74
2021/01/08 22:29:11;;;;;;;88.70;43.47;;;;;;;3.06;61.49;98940.36;260816;1105;114709;-74
2021/01/08 22:34:13;;;;;;;82.60;42.40;;;;;;;3.05;61.65;98943.02;260855;1104;114521;-74
2021/01/08 22:39:16;;;;;;;80.80;40.67;;;;;;;3.05;61.52;98946.50;260919;1104;114411;-74
2021/01/08 22:44:19;;;;;;;93.53;44.27;;;;;;;3.07;61.93;98947.33;260823;1103;115039;-74
2021/01/08 22:49:21;;;;;;;81.83;41.33;;;;;;;3.10;62.05;98941.12;260911;1103;114511;-74
2021/01/08 22:54:23;;;;;;;83.80;41.60;;;;;;;3.11;62.03;98942.83;260856;1104;114660;-74
2021/01/08 22:59:26;;;;;;;76.57;40.40;;;;;;;3.12;61.91;98944.53;260860;1101;114923;-73
2021/01/08 23:04:28;;;;;;;79.32;40.03;;;;;;;3.15;61.61;98949.70;261015;1101;114890;-74
2021/01/08 23:09:31;;;;;;;79.97;38.30;;;;;;;3.18;61.97;98944.34;259994;1104;114525;-73